createdAt,value
2022-08-28T00:00:32.123Z,10.33
2022-08-28T00:03:59.241Z,13.53
2022-08-28T00:07:26.777Z,13.80
2022-08-28T00:10:53.225Z,9.73
2022-08-28T00:14:21.088Z,20.10
2022-08-28T00:17:12.891Z,14.83
2022-08-28T00:20:32.634Z,13.57
2022-08-28T00:23:59.042Z,15.83
2022-08-28T00:27:42.989Z,13.60
2022-08-28T00:31:07.757Z,16.30
2022-08-28T00:34:07.848Z,16.60
2022-08-28T00:37:05.267Z,16.77
2022-08-28T00:40:33.075Z,11.87
2022-08-28T00:44:08.646Z,10.47
2022-08-28T00:47:17.694Z,13.63
2022-08-28T00:50:26.074Z,12.10
2022-08-28T00:53:50.952Z,16.20
2022-08-28T00:56:59.238Z,11.37
2022-08-28T00:59:46.673Z,11.60
2022-08-28T01:03:13.466Z,11.73
2022-08-28T01:06:05.232Z,16.30
2022-08-28T01:08:54.429Z,6.60
2022-08-28T01:11:22.211Z,11.97
2022-08-28T01:14:12.075Z,9.13
2022-08-28T01:16:58.988Z,16.53
2022-08-28T01:20:29.870Z,9.20
2022-08-28T01:24:04.772Z,7.77
2022-08-28T01:27:31.276Z,10.93
2022-08-28T01:30:57.787Z,16.40
2022-08-28T01:34:24.627Z,12.97
2022-08-28T01:37:51.265Z,11.10
2022-08-28T01:41:21.267Z,13.47
2022-08-28T01:44:47.666Z,18.83
2022-08-28T01:48:14.704Z,18.03
2022-08-28T01:51:42.168Z,11.23
2022-08-28T01:55:09.389Z,13.63
2022-08-28T01:58:42.273Z,16.60
2022-08-28T02:02:10.572Z,13.57
2022-08-28T02:05:38.029Z,17.57
2022-08-28T02:09:05.492Z,14.87
2022-08-28T02:12:32.480Z,15.30
2022-08-28T02:16:00.810Z,19.50
2022-08-28T02:19:27.224Z,11.80
2022-08-28T02:22:53.559Z,13.43
2022-08-28T02:26:19.942Z,15.50
2022-08-28T02:29:46.914Z,17.17
2022-08-28T02:33:14.836Z,12.63
2022-08-28T02:36:41.645Z,24.77
2022-08-28T02:40:08.787Z,14.10
2022-08-28T02:43:35.243Z,17.20
2022-08-28T02:47:01.671Z,13.70
2022-08-28T02:50:31.045Z,19.90
2022-08-28T02:53:57.828Z,12.73
2022-08-28T02:57:24.178Z,11.77
2022-08-28T03:00:51.200Z,12.60
2022-08-28T03:04:17.637Z,9.37
2022-08-28T03:07:45.311Z,19.77
2022-08-28T03:11:12.110Z,13.90
2022-08-28T03:14:38.533Z,13.57
2022-08-28T03:18:07.841Z,18.27
2022-08-28T03:21:34.658Z,9.70
2022-08-28T03:25:03.790Z,17.53
2022-08-28T03:28:31.520Z,9.33
2022-08-28T03:31:57.989Z,13.80
2022-08-28T03:35:24.297Z,12.40
2022-08-28T03:38:50.937Z,12.77
2022-08-28T03:42:19.735Z,9.77
2022-08-28T03:45:52.818Z,6.80
2022-08-28T03:49:19.828Z,8.60
2022-08-28T03:52:47.494Z,10.30
2022-08-28T03:56:15.473Z,11.90
2022-08-28T03:59:43.282Z,11.43
2022-08-28T04:03:12.323Z,20.27
2022-08-28T04:06:38.874Z,18.83
2022-08-28T04:10:05.723Z,13.63
2022-08-28T04:13:32.385Z,6.50
2022-08-28T04:17:02.223Z,10.67
2022-08-28T04:20:28.723Z,11.67
2022-08-28T04:23:55.071Z,5.70
2022-08-28T04:27:22.669Z,10.50
2022-08-28T04:30:49.853Z,4.37
2022-08-28T04:34:17.935Z,5.50
2022-08-28T04:37:44.672Z,16.07
2022-08-28T04:41:12.678Z,18.80
2022-08-28T04:44:37.118Z,7.70
2022-08-28T04:48:11.408Z,9.13
2022-08-28T04:51:42.442Z,7.47
2022-08-28T04:55:09.596Z,10.83
2022-08-28T04:58:35.910Z,17.63
2022-08-28T05:02:06.636Z,9.67
2022-08-28T05:05:33.058Z,17.00
2022-08-28T05:09:01.441Z,20.40
2022-08-28T05:12:28.995Z,18.20
2022-08-28T05:15:55.400Z,11.80
2022-08-28T05:19:04.612Z,13.70
2022-08-28T05:22:31.536Z,13.17
2022-08-28T05:25:59.894Z,8.33
2022-08-28T05:29:26.265Z,15.57
2022-08-28T05:32:51.293Z,11.27
2022-08-28T05:35:31.195Z,8.03
2022-08-28T05:37:59.638Z,13.03
2022-08-28T05:40:28.964Z,5.57
2022-08-28T05:42:57.014Z,6.00
2022-08-28T05:45:25.165Z,16.40
2022-08-28T05:47:53.456Z,331.37
2022-08-28T05:50:21.459Z,27.30
2022-08-28T05:52:49.444Z,49.40
2022-08-28T05:55:17.554Z,785.03
2022-08-28T05:57:46.709Z,150.97
2022-08-28T06:00:15.548Z,374.20
2022-08-28T06:02:44.434Z,538.73
2022-08-28T06:05:13.249Z,306.73
2022-08-28T06:07:41.942Z,341.20
2022-08-28T06:10:10.744Z,310.33
2022-08-28T06:12:39.007Z,13.87
2022-08-28T06:15:10.767Z,880.97
2022-08-28T06:17:38.676Z,857.20
2022-08-28T06:20:07.504Z,875.30
2022-08-28T06:22:35.443Z,840.47
2022-08-28T06:25:07.429Z,845.93
2022-08-28T06:27:36.769Z,829.87
2022-08-28T06:30:05.259Z,903.17
2022-08-28T06:32:34.499Z,853.50
2022-08-28T06:35:03.266Z,741.93
2022-08-28T06:37:31.061Z,832.83
2022-08-28T06:39:58.993Z,733.03
2022-08-28T06:42:28.275Z,843.53
2022-08-28T06:44:56.161Z,684.83
2022-08-28T06:47:42.131Z,641.47
2022-08-28T06:50:21.426Z,957.20
2022-08-28T06:53:18.597Z,956.57
2022-08-28T06:56:25.407Z,932.47
2022-08-28T06:59:18.093Z,965.17
2022-08-28T07:02:02.598Z,967.60
2022-08-28T07:05:25.485Z,970.53
2022-08-28T07:08:06.482Z,845.13
2022-08-28T07:10:46.363Z,920.57
2022-08-28T07:13:30.028Z,933.47
2022-08-28T07:16:17.948Z,850.80
2022-08-28T07:19:08.554Z,955.70
2022-08-28T07:22:40.902Z,919.13
2022-08-28T07:25:57.978Z,11.60
2022-08-28T07:28:26.153Z,858.70
2022-08-28T07:30:58.176Z,46.10
2022-08-28T07:33:26.697Z,310.20
2022-08-28T07:35:54.710Z,96.90
2022-08-28T07:38:25.356Z,48.60
2022-08-28T07:40:53.489Z,11.93
2022-08-28T07:43:39.051Z,522.23
2022-08-28T07:46:08.877Z,10.50
2022-08-28T07:48:41.180Z,12.33
2022-08-28T07:51:10.292Z,23.07
2022-08-28T07:53:39.723Z,37.60
2022-08-28T07:56:08.361Z,14.07
2022-08-28T07:58:36.225Z,9.53
2022-08-28T08:01:06.340Z,389.10
2022-08-28T08:03:34.609Z,338.40
2022-08-28T08:06:08.527Z,15.87
2022-08-28T08:09:30.482Z,125.67
2022-08-28T08:12:27.948Z,15.53
2022-08-28T08:15:04.679Z,15.07
2022-08-28T08:17:54.824Z,10.23
2022-08-28T08:20:37.014Z,19.23
2022-08-28T08:23:20.970Z,202.80
2022-08-28T08:26:13.571Z,11.93
2022-08-28T08:28:54.758Z,10.70
2022-08-28T08:31:36.109Z,1005.63
2022-08-28T08:34:21.056Z,813.77
2022-08-28T08:37:05.541Z,966.93
2022-08-28T08:39:57.229Z,993.63
2022-08-28T08:42:58.089Z,978.87
2022-08-28T08:46:05.496Z,1011.13
2022-08-28T08:49:07.097Z,998.43
2022-08-28T08:52:06.270Z,991.50
2022-08-28T08:54:34.065Z,1020.27
2022-08-28T08:57:06.540Z,1045.90
2022-08-28T08:59:44.534Z,1032.63
2022-08-28T09:02:17.393Z,1012.33
2022-08-28T09:05:03.235Z,997.57
2022-08-28T09:07:49.243Z,997.83
2022-08-28T09:10:33.058Z,995.17
2022-08-28T09:13:07.806Z,1005.17
2022-08-28T09:15:53.916Z,1052.73
2022-08-28T09:18:34.316Z,1043.97
2022-08-28T09:21:05.256Z,1047.30
2022-08-28T09:23:34.274Z,1052.80
2022-08-28T09:26:09.199Z,1032.77
2022-08-28T09:28:42.170Z,1019.30
2022-08-28T09:31:15.766Z,1051.17
2022-08-28T09:33:51.225Z,1018.43
2022-08-28T09:36:29.157Z,1032.53
2022-08-28T09:39:09.502Z,1036.03
2022-08-28T09:41:57.326Z,1047.10
2022-08-28T09:44:25.269Z,1024.70
2022-08-28T09:46:54.677Z,1062.97
2022-08-28T09:49:28.483Z,1044.57
2022-08-28T09:51:57.575Z,1038.93
2022-08-28T09:54:31.541Z,1052.43
2022-08-28T09:57:57.169Z,1029.83
2022-08-28T10:01:30.194Z,1049.83
2022-08-28T10:04:29.094Z,1047.43
2022-08-28T10:07:00.724Z,1028.33
2022-08-28T10:09:34.215Z,1050.33
2022-08-28T10:12:08.249Z,1048.10
2022-08-28T10:14:50.246Z,1024.03
2022-08-28T10:17:25.435Z,1063.87
2022-08-28T10:20:01.900Z,1079.20
2022-08-28T10:22:37.437Z,1078.87
2022-08-28T10:25:14.732Z,1061.87
2022-08-28T10:27:51.832Z,1041.10
2022-08-28T10:30:22.966Z,1065.57
2022-08-28T10:33:03.938Z,1049.70
2022-08-28T10:35:48.899Z,1071.00
2022-08-28T10:38:19.943Z,1081.70
2022-08-28T10:40:53.482Z,1079.93
2022-08-28T10:43:24.266Z,1079.07
2022-08-28T10:45:55.147Z,1052.53
2022-08-28T10:49:26.444Z,1083.43
2022-08-28T10:52:57.553Z,1097.07
2022-08-28T10:56:26.442Z,1072.17
2022-08-28T10:59:56.068Z,1093.73
2022-08-28T11:03:34.330Z,1057.00
2022-08-28T11:07:04.736Z,1073.20
2022-08-28T11:10:45.176Z,1074.10
2022-08-28T11:14:12.298Z,1070.43
2022-08-28T11:17:41.608Z,1054.73
2022-08-28T11:21:14.227Z,1079.80
2022-08-28T11:24:46.556Z,1057.40
2022-08-28T11:28:22.316Z,1046.03
2022-08-28T11:32:14.922Z,1039.00
2022-08-28T11:35:56.917Z,1039.70
2022-08-28T11:39:43.258Z,1009.00
2022-08-28T11:43:10.645Z,1010.73
2022-08-28T11:46:41.707Z,1012.03
2022-08-28T11:50:14.599Z,1005.27
2022-08-28T11:53:51.688Z,1012.53
2022-08-28T11:57:50.036Z,1005.47
2022-08-28T12:01:27.799Z,992.20
2022-08-28T12:04:54.682Z,1011.17
2022-08-28T12:08:40.522Z,999.13
2022-08-28T12:12:07.679Z,1028.90
2022-08-28T12:16:08.194Z,1003.20
2022-08-28T12:19:59.610Z,999.43
2022-08-28T12:23:39.925Z,1013.00
2022-08-28T12:26:57.262Z,1012.03
2022-08-28T12:30:29.040Z,1030.67
2022-08-28T12:34:01.992Z,1029.27
2022-08-28T12:37:36.839Z,1004.70
2022-08-28T12:41:20.669Z,1014.40
2022-08-28T12:44:48.127Z,1012.73
2022-08-28T12:48:17.566Z,1029.93
2022-08-28T12:51:44.030Z,1012.03
2022-08-28T12:55:16.548Z,1016.93
2022-08-28T12:58:44.628Z,1053.00
2022-08-28T13:02:19.225Z,1048.20
2022-08-28T13:05:56.752Z,1024.67
2022-08-28T13:09:23.237Z,1060.03
2022-08-28T13:12:54.711Z,1060.23
2022-08-28T13:16:44.534Z,1079.17
2022-08-28T13:20:15.506Z,1068.57
2022-08-28T13:23:42.267Z,1071.07
2022-08-28T13:27:20.792Z,1072.43
2022-08-28T13:30:57.456Z,1074.87
2022-08-28T13:34:25.932Z,1080.50
2022-08-28T13:37:52.390Z,1090.23
2022-08-28T13:41:00.817Z,1156.67
2022-08-28T13:44:22.619Z,1181.37
2022-08-28T13:47:27.868Z,1195.50
2022-08-28T13:50:54.837Z,1158.33
2022-08-28T13:54:23.249Z,505.67
2022-08-28T13:57:52.035Z,42.07
2022-08-28T14:01:11.620Z,110.03
2022-08-28T14:04:06.029Z,1293.77
2022-08-28T14:07:02.068Z,211.93
2022-08-28T14:10:29.792Z,921.30
2022-08-28T14:13:56.134Z,95.47
2022-08-28T14:17:23.010Z,3.10
2022-08-28T14:24:16.950Z,18.60
2022-08-28T14:38:07.662Z,4.95
2022-08-28T14:41:36.645Z,475.53
2022-08-28T14:44:09.157Z,26.43
2022-08-28T14:47:00.123Z,72.77
2022-08-28T14:49:36.086Z,92.27
2022-08-28T14:52:04.612Z,158.20
2022-08-28T20:16:51.979Z,35.95
2022-08-28T20:20:19.101Z,954.27
2022-08-28T20:23:45.467Z,127.43
2022-08-28T20:27:13.755Z,229.20
2022-08-28T20:30:40.120Z,110.93
2022-08-28T20:34:06.791Z,211.50
2022-08-28T20:37:34.128Z,4.63
2022-08-28T20:41:12.168Z,547.20
2022-08-28T20:44:42.171Z,154.17
2022-08-28T20:48:08.590Z,916.27
2022-08-28T20:51:52.283Z,921.97
2022-08-28T20:55:18.729Z,10.20
2022-08-28T20:58:46.344Z,929.27
2022-08-28T21:02:13.523Z,24.90
2022-08-28T21:05:44.654Z,359.90
2022-08-28T21:09:14.571Z,910.93
2022-08-28T21:12:41.089Z,982.40
2022-08-28T21:16:10.702Z,908.87
2022-08-28T21:19:40.533Z,932.93
2022-08-28T21:23:07.311Z,898.47
2022-08-28T21:26:33.692Z,784.13
2022-08-28T21:30:01.011Z,777.03
2022-08-28T21:33:29.606Z,64.87
2022-08-28T21:35:59.631Z,35.53
2022-08-28T21:39:25.884Z,20.87
2022-08-28T21:42:53.670Z,14.10
2022-08-28T21:46:20.005Z,3.90
2022-08-28T21:49:49.406Z,4.53
2022-08-28T21:53:16.489Z,707.83
2022-08-28T21:56:48.303Z,599.17
2022-08-28T22:00:23.084Z,184.43
2022-08-28T22:03:51.211Z,6.67
2022-08-28T22:07:19.176Z,12.40
2022-08-28T22:10:45.548Z,61.03
2022-08-28T22:14:13.944Z,8.77
2022-08-28T22:17:40.161Z,13.17
2022-08-28T22:21:29.108Z,7.93
2022-08-28T22:24:55.355Z,9.97
2022-08-28T22:28:21.770Z,8.20
2022-08-28T22:31:48.079Z,6.80
2022-08-28T22:35:15.733Z,6.40
2022-08-28T22:38:42.315Z,66.57
2022-08-28T22:42:16.020Z,6.43
2022-08-28T22:45:42.631Z,10.00
2022-08-28T22:49:09.245Z,8.43
2022-08-28T22:52:37.150Z,765.10
2022-08-28T22:56:07.878Z,12.30
2022-08-28T22:59:34.512Z,562.80
2022-08-28T23:03:01.032Z,626.97
2022-08-28T23:06:28.675Z,10.93
2022-08-28T23:09:56.395Z,8.93
2022-08-28T23:13:22.742Z,621.90
2022-08-28T23:16:49.377Z,11.00
2022-08-28T23:20:18.556Z,247.70
2022-08-28T23:23:45.197Z,112.10
2022-08-28T23:27:34.592Z,314.00
2022-08-28T23:30:59.530Z,393.60
2022-08-28T23:34:26.317Z,587.97
2022-08-28T23:37:52.602Z,642.57
2022-08-28T23:41:21.403Z,539.53
2022-08-28T23:44:48.596Z,569.73
2022-08-28T23:48:15.401Z,73.93
2022-08-28T23:51:42.741Z,168.17
2022-08-28T23:55:10.435Z,9.33
2022-08-28T23:58:38.066Z,9.97
